createdAt,value
2022-08-11T00:00:22.016Z,100456.50
2022-08-11T00:02:52.661Z,100429.72
2022-08-11T00:05:22.579Z,100471.28
2022-08-11T00:07:51.810Z,100450.25
2022-08-11T00:10:22.276Z,100452.13
2022-08-11T00:12:52.573Z,100435.72
2022-08-11T00:15:21.287Z,100444.75
2022-08-11T00:17:49.261Z,100417.22
2022-08-11T00:20:17.419Z,100460.94
2022-08-11T00:22:48.172Z,100441.66
2022-08-11T00:25:17.045Z,100422.47
2022-08-11T00:27:45.149Z,100459.75
2022-08-11T00:30:13.572Z,100459.09
2022-08-11T00:32:44.299Z,100447.00
2022-08-11T00:35:56.095Z,100449.75
2022-08-11T00:38:02.846Z,100445.50
2022-08-11T00:40:43.021Z,100392.50
2022-08-11T00:43:20.355Z,100446.81
2022-08-11T00:46:06.543Z,100446.25
2022-08-11T00:48:37.533Z,100450.72
2022-08-11T00:51:10.886Z,100445.56
2022-08-11T00:53:47.973Z,100401.72
2022-08-11T00:56:25.774Z,100404.34
2022-08-11T00:59:35.113Z,100441.38
2022-08-11T01:02:40.246Z,100448.53
2022-08-11T01:05:49.033Z,100446.16
2022-08-11T01:09:22.082Z,100452.66
2022-08-11T01:12:19.149Z,100451.22
2022-08-11T01:15:14.855Z,100402.91
2022-08-11T01:18:20.412Z,100454.09
2022-08-11T01:21:32.854Z,100455.31
2022-08-11T01:24:39.996Z,100450.91
2022-08-11T01:27:33.703Z,100450.22
2022-08-11T01:30:39.371Z,100440.56
2022-08-11T01:33:43.280Z,100440.81
2022-08-11T01:36:56.751Z,100454.16
2022-08-11T01:40:12.457Z,100445.44
2022-08-11T01:43:42.261Z,100441.97
2022-08-11T01:46:13.658Z,100403.28
2022-08-11T01:48:43.616Z,100446.34
2022-08-11T01:51:24.134Z,100438.00
2022-08-11T01:53:58.332Z,100440.81
2022-08-11T01:56:59.545Z,100446.06
2022-08-11T01:59:30.947Z,100436.00
2022-08-11T02:02:43.259Z,100443.66
2022-08-11T02:05:19.565Z,100445.81
2022-08-11T02:07:55.671Z,100451.19
2022-08-11T02:10:57.511Z,100446.81
2022-08-11T02:13:36.729Z,100422.31
2022-08-11T02:16:11.946Z,100413.63
2022-08-11T02:19:00.480Z,100434.97
2022-08-11T02:21:50.460Z,100427.63
2022-08-11T02:24:22.376Z,100438.78
2022-08-11T04:12:58.959Z,100439.44
2022-08-11T04:16:10.967Z,100432.28
2022-08-11T04:19:15.941Z,100439.38
2022-08-11T04:21:59.398Z,100444.88
2022-08-11T04:24:57.262Z,100451.16
2022-08-11T04:27:44.619Z,100445.84
2022-08-11T04:30:17.972Z,100436.31
2022-08-11T04:33:03.150Z,100391.34
2022-08-11T04:35:35.922Z,100447.75
2022-08-11T04:38:33.548Z,100445.97
2022-08-11T04:41:58.220Z,100447.75
2022-08-11T04:45:01.016Z,100440.78
2022-08-11T04:48:03.854Z,100450.59
2022-08-11T04:51:09.295Z,100442.72
2022-08-11T04:54:09.296Z,100454.00
2022-08-11T04:56:54.501Z,100453.03
2022-08-11T04:59:57.272Z,100445.75
2022-08-11T05:03:12.413Z,100447.25
2022-08-11T05:06:06.120Z,100383.66
2022-08-11T05:08:54.701Z,100349.91
2022-08-11T05:11:44.949Z,100360.56
2022-08-11T05:14:49.476Z,100451.00
2022-08-11T05:17:40.925Z,100408.97
2022-08-11T05:20:29.178Z,100390.44
2022-08-11T05:23:19.217Z,100404.44
2022-08-11T05:26:44.461Z,100462.94
2022-08-11T05:29:19.820Z,100554.91
2022-08-11T05:32:10.050Z,100353.34
2022-08-11T05:34:56.744Z,100307.81
2022-08-11T05:37:27.872Z,100351.72
2022-08-11T05:40:18.091Z,100463.22
2022-08-11T05:43:08.401Z,100478.56
2022-08-11T05:46:03.451Z,100410.75
2022-08-11T05:48:51.790Z,100275.66
2022-08-11T05:51:36.964Z,100250.19
2022-08-11T05:54:28.472Z,100410.03
2022-08-11T05:56:59.513Z,100464.94
2022-08-11T05:59:28.335Z,100382.88
2022-08-11T06:02:01.831Z,100463.47
2022-08-11T06:04:29.942Z,100292.06
2022-08-11T06:06:58.843Z,100436.03
2022-08-11T06:09:28.677Z,100455.59
2022-08-11T06:12:00.086Z,100471.97
2022-08-11T06:14:31.092Z,100232.53
2022-08-11T06:17:00.479Z,100377.59
2022-08-11T06:19:36.106Z,100466.63
2022-08-11T06:22:05.396Z,100426.75
2022-08-11T06:24:33.532Z,100397.50
2022-08-11T06:27:12.320Z,100516.88
2022-08-11T06:29:48.155Z,100503.19
2022-08-11T06:32:25.550Z,100474.31
2022-08-11T06:35:07.293Z,100370.72
2022-08-11T06:37:43.581Z,100389.75
2022-08-11T06:40:14.419Z,100411.00
2022-08-11T06:42:51.108Z,100425.50
2022-08-11T06:45:27.900Z,100325.56
2022-08-11T06:47:55.872Z,100406.22
2022-08-11T06:50:41.409Z,100460.25
2022-08-11T06:53:12.294Z,100482.13
2022-08-11T06:55:59.121Z,100458.06
2022-08-11T06:58:47.539Z,100371.69
2022-08-11T07:01:17.283Z,100293.44
2022-08-11T07:03:46.399Z,100198.25
2022-08-11T07:06:23.409Z,100288.78
2022-08-11T07:09:45.224Z,100420.53
2022-08-11T07:12:52.176Z,100231.00
2022-08-11T07:16:10.638Z,100430.28
2022-08-11T07:18:47.948Z,100218.00
2022-08-11T07:22:00.485Z,100453.59
2022-08-11T07:24:59.609Z,100462.38
2022-08-11T07:27:55.817Z,100350.75
2022-08-11T07:30:25.174Z,100368.28
2022-08-11T07:32:58.085Z,100460.91
2022-08-11T07:35:28.829Z,100352.19
2022-08-11T07:38:02.293Z,100432.56
2022-08-11T07:40:31.523Z,100291.47
2022-08-11T07:43:00.143Z,100264.66
2022-08-11T07:45:47.321Z,100351.44
2022-08-11T07:48:33.107Z,100347.03
2022-08-11T07:51:18.548Z,100422.41
2022-08-11T07:53:58.772Z,100296.38
2022-08-11T07:56:47.985Z,100434.91
2022-08-11T08:00:00.641Z,100306.28
2022-08-11T08:02:46.979Z,100442.19
2022-08-11T08:05:32.404Z,100442.00
2022-08-11T08:08:17.707Z,100362.06
2022-08-11T08:11:03.227Z,100438.00
2022-08-11T08:13:48.724Z,100353.84
2022-08-11T08:16:36.144Z,100352.72
2022-08-11T08:19:05.611Z,100324.16
2022-08-11T08:21:33.727Z,100237.75
2022-08-11T08:24:01.746Z,100363.41
2022-08-11T08:26:51.519Z,100355.66
2022-08-11T08:29:37.849Z,100315.56
2022-08-11T08:32:06.496Z,100453.34
2022-08-11T08:34:36.429Z,100461.00
2022-08-11T08:37:16.171Z,100267.50
2022-08-11T08:39:54.557Z,100293.34
2022-08-11T08:42:25.606Z,100239.69
2022-08-11T08:44:57.538Z,100167.50
2022-08-11T08:47:42.264Z,100364.00
2022-08-11T08:50:16.857Z,100423.56
2022-08-11T08:52:49.120Z,100445.19
2022-08-11T08:55:20.643Z,100491.56
2022-08-11T08:57:50.754Z,100498.50
2022-08-11T09:00:22.993Z,100207.56
2022-08-11T09:02:52.478Z,100446.47
2022-08-11T09:05:23.587Z,100463.94
2022-08-11T09:07:53.603Z,100447.22
2022-08-11T09:10:22.410Z,100380.59
2022-08-11T09:12:51.209Z,100162.63
2022-08-11T09:15:20.254Z,100313.38
2022-08-11T09:17:50.536Z,100467.63
2022-08-11T09:20:22.831Z,100163.41
2022-08-11T09:26:31.030Z,100410.06
2022-08-11T09:28:59.752Z,100442.03
2022-08-11T09:31:28.677Z,100336.72
2022-08-11T09:33:57.064Z,100220.19
2022-08-11T09:36:44.568Z,100242.97
2022-08-11T09:39:31.211Z,100290.00
2022-08-11T09:42:03.300Z,100222.63
2022-08-11T09:44:49.480Z,100165.47
2022-08-11T09:47:19.633Z,100277.13
2022-08-11T09:49:49.102Z,100369.94
2022-08-11T09:52:18.942Z,100189.34
2022-08-11T09:54:48.900Z,100441.91
2022-08-11T09:57:37.631Z,100210.97
2022-08-11T10:00:09.527Z,100067.00
2022-08-11T10:02:43.633Z,100031.44
2022-08-11T10:05:29.162Z,100350.56
2022-08-11T10:07:59.062Z,100415.06
2022-08-11T10:10:27.422Z,100347.72
2022-08-11T10:13:00.343Z,100157.09
2022-08-11T10:15:38.448Z,100409.78
2022-08-11T10:18:26.294Z,100302.28
2022-08-11T10:20:58.300Z,100228.91
2022-08-11T10:24:01.495Z,100298.19
2022-08-11T10:26:54.519Z,100220.53
2022-08-11T10:29:45.387Z,100192.63
2022-08-11T10:32:49.275Z,100335.69
2022-08-11T10:35:27.349Z,100164.94
2022-08-11T10:38:09.051Z,100294.75
2022-08-11T10:40:40.141Z,100302.16
2022-08-11T10:43:10.629Z,100346.38
2022-08-11T10:45:56.992Z,100337.66
2022-08-11T10:48:26.191Z,100248.97
2022-08-11T10:51:11.856Z,100193.81
2022-08-11T10:53:58.684Z,100181.03
2022-08-11T10:56:47.294Z,100198.91
2022-08-11T10:59:15.549Z,100378.44
2022-08-11T11:01:44.233Z,100249.91
2022-08-11T11:04:14.301Z,100306.81
2022-08-11T11:09:18.069Z,100369.47
2022-08-11T11:12:09.310Z,100349.38
2022-08-11T11:14:59.024Z,100345.88
2022-08-11T11:17:49.076Z,100344.88
2022-08-11T11:20:36.938Z,100341.13
2022-08-11T11:23:08.605Z,100347.25
2022-08-11T11:26:06.481Z,100330.97
2022-08-11T11:28:45.219Z,100334.19
2022-08-11T11:31:15.817Z,100324.41
2022-08-11T11:34:11.861Z,100326.91
2022-08-11T11:36:45.358Z,100314.22
2022-08-11T11:39:13.305Z,100308.59
2022-08-11T11:41:41.206Z,100318.53
2022-08-11T11:44:10.478Z,100314.63
2022-08-11T11:46:38.584Z,100302.47
2022-08-11T11:49:16.740Z,100327.16
2022-08-11T11:51:45.655Z,100305.91
2022-08-11T11:54:17.858Z,100307.38
2022-08-11T11:56:46.519Z,100297.34
2022-08-11T11:59:44.804Z,100259.19
2022-08-11T12:02:14.444Z,100287.84
2022-08-11T12:04:43.059Z,100288.22
2022-08-11T12:07:28.900Z,100279.53
2022-08-11T12:09:56.955Z,100291.53
2022-08-11T12:12:42.524Z,100282.91
2022-08-11T12:15:11.850Z,100284.84
2022-08-11T12:17:39.966Z,100283.25
2022-08-11T12:20:30.780Z,100275.38
2022-08-11T12:23:14.856Z,100273.66
2022-08-11T12:26:25.192Z,100259.03
2022-08-11T12:28:49.085Z,100261.06
2022-08-11T12:31:22.155Z,100257.63
2022-08-11T12:33:50.414Z,100260.38
2022-08-11T12:36:18.256Z,100262.25
2022-08-11T12:38:51.248Z,100238.78
2022-08-11T12:41:37.620Z,100218.34
2022-08-11T12:44:37.661Z,100234.97
2022-08-11T12:47:07.133Z,100238.38
2022-08-11T12:49:54.255Z,100237.06
2022-08-11T12:52:24.558Z,100239.69
2022-08-11T12:54:59.639Z,100231.00
2022-08-11T12:57:47.965Z,100224.72
2022-08-11T13:00:33.411Z,100227.28
2022-08-11T13:03:21.457Z,100218.25
2022-08-11T13:05:49.613Z,100211.59
2022-08-11T13:08:19.324Z,100227.13
2022-08-11T13:11:05.098Z,100213.50
2022-08-11T13:13:54.377Z,100230.84
2022-08-11T13:16:21.542Z,100212.06
2022-08-11T13:18:50.910Z,100217.50
2022-08-11T13:21:21.460Z,100177.84
2022-08-11T13:24:01.784Z,100202.72
2022-08-11T13:26:46.986Z,100198.34
2022-08-11T13:29:19.224Z,100201.06
2022-08-11T13:31:47.546Z,100199.38
2022-08-11T13:34:17.657Z,100187.75
2022-08-11T13:36:46.536Z,100183.53
2022-08-11T13:39:14.393Z,100184.53
2022-08-11T13:41:44.174Z,100189.97
2022-08-11T13:44:15.926Z,100149.78
2022-08-11T13:46:46.177Z,100151.28
2022-08-11T13:49:17.408Z,100171.56
2022-08-11T13:51:45.363Z,100175.97
2022-08-11T13:54:17.591Z,100178.00
2022-08-11T13:56:46.752Z,100175.63
2022-08-11T13:59:14.936Z,100182.59
2022-08-11T14:02:19.407Z,100179.56
2022-08-11T14:04:36.239Z,100173.75
2022-08-11T14:07:06.309Z,100167.66
2022-08-11T14:09:37.881Z,100172.91
2022-08-11T14:12:27.854Z,100165.94
2022-08-11T14:15:01.293Z,100167.47
2022-08-11T14:17:39.985Z,100164.25
2022-08-11T14:20:38.236Z,100171.41
2022-08-11T14:23:05.495Z,100163.56
2022-08-11T14:26:00.069Z,100160.28
2022-08-11T14:28:31.834Z,100155.53
2022-08-11T14:31:04.668Z,100149.25
2022-08-11T14:34:00.007Z,100165.59
2022-08-11T14:36:21.996Z,100152.81
2022-08-11T14:38:49.811Z,100152.31
2022-08-11T14:41:35.285Z,100149.56
2022-08-11T14:44:20.661Z,100124.47
2022-08-11T14:47:24.667Z,100133.50
2022-08-11T14:50:09.479Z,100131.63
2022-08-11T14:52:40.470Z,100097.03
2022-08-11T14:55:26.746Z,100136.09
2022-08-11T14:57:56.681Z,100124.28
2022-08-11T15:00:24.990Z,100129.44
2022-08-11T15:03:10.026Z,100128.06
2022-08-11T15:05:38.909Z,100127.38
2022-08-11T15:08:10.846Z,100118.16
2022-08-11T15:10:38.781Z,100114.75
2022-08-11T15:13:06.807Z,100093.97
2022-08-11T15:15:54.338Z,100122.41
2022-08-11T15:18:24.200Z,100119.16
2022-08-11T15:21:09.521Z,100118.50
2022-08-11T15:23:57.869Z,100108.44
2022-08-11T15:26:43.413Z,100105.56
2022-08-11T15:29:28.607Z,100115.09
2022-08-11T15:32:14.010Z,100098.56
2022-08-11T15:35:03.285Z,100104.69
2022-08-11T15:37:32.068Z,100095.91
2022-08-11T15:40:32.904Z,100103.72
2022-08-11T15:43:22.714Z,100079.50
2022-08-11T15:45:53.934Z,100103.88
2022-08-11T15:48:35.737Z,100094.00
2022-08-11T15:51:09.195Z,100088.53
2022-08-11T15:53:41.647Z,100083.38
2022-08-11T15:56:11.187Z,100095.81
2022-08-11T15:59:40.565Z,100091.69
2022-08-11T16:02:05.457Z,100098.78
2022-08-11T16:04:33.318Z,100086.66
2022-08-11T16:07:02.073Z,100100.75
2022-08-11T16:09:36.917Z,100066.81
2022-08-11T16:12:23.298Z,100078.25
2022-08-11T16:15:10.359Z,100076.56
2022-08-11T16:17:41.601Z,100070.78
2022-08-11T16:20:10.548Z,100071.47
2022-08-11T16:22:40.011Z,100069.75
2022-08-11T16:27:01.927Z,100059.50
2022-08-11T16:28:07.410Z,100077.53
2022-08-11T16:30:35.750Z,100067.47
2022-08-11T16:33:48.622Z,100070.50
2022-08-11T16:36:09.624Z,100051.16
2022-08-11T16:38:39.091Z,100069.03
2022-08-11T16:41:11.521Z,100056.50
2022-08-11T16:43:59.467Z,100046.88
2022-08-11T16:46:44.816Z,100037.47
2022-08-11T16:49:14.569Z,100070.69
2022-08-11T16:51:42.494Z,100073.88
2022-08-11T16:54:10.322Z,100071.66
2022-08-11T16:56:39.900Z,100044.09
2022-08-11T16:59:16.687Z,100076.88
2022-08-11T17:01:48.069Z,100067.69
2022-08-11T17:04:37.519Z,100070.88
2022-08-11T17:07:41.643Z,99873.59
2022-08-11T17:10:51.214Z,100070.22
2022-08-11T17:13:20.536Z,100008.56
2022-08-11T17:16:08.954Z,100028.47
2022-08-11T17:18:50.605Z,100044.25
2022-08-11T17:21:23.383Z,100081.69
2022-08-11T17:23:55.257Z,100062.97
2022-08-11T17:26:28.249Z,99720.56
2022-08-11T17:28:59.935Z,99999.09
2022-08-11T17:31:52.108Z,99831.03
2022-08-11T17:34:37.428Z,99927.53
2022-08-11T17:37:05.585Z,100003.41
2022-08-11T17:39:33.656Z,100051.47
2022-08-11T17:42:19.492Z,99897.41
2022-08-11T17:45:04.784Z,100079.31
2022-08-11T17:47:51.740Z,100063.13
2022-08-11T17:50:19.732Z,99976.84
2022-08-11T17:53:05.215Z,100007.88
2022-08-11T17:55:52.380Z,100005.06
2022-08-11T17:58:38.816Z,100001.22
2022-08-11T18:01:09.234Z,99949.03
2022-08-11T18:03:40.017Z,100063.72
2022-08-11T18:06:12.616Z,99934.00
2022-08-11T18:08:59.964Z,100068.47
2022-08-11T18:12:10.162Z,100068.91
2022-08-11T18:14:55.632Z,99830.22
2022-08-11T18:17:40.988Z,99948.19
2022-08-11T18:20:28.620Z,100063.06
2022-08-11T18:23:14.303Z,100081.59
2022-08-11T18:26:01.458Z,100077.25
2022-08-11T18:28:51.145Z,100082.22
2022-08-11T18:31:36.675Z,100091.03
2022-08-11T18:34:23.518Z,100085.63
2022-08-11T18:37:19.944Z,100047.53
2022-08-11T18:40:11.993Z,100085.31
2022-08-11T18:42:57.319Z,100086.00
2022-08-11T18:45:45.549Z,100090.09
2022-08-11T18:48:33.827Z,100090.78
2022-08-11T18:51:31.247Z,100091.59
2022-08-11T18:54:25.700Z,100065.41
2022-08-11T18:57:11.289Z,100102.88
2022-08-11T18:59:58.294Z,100071.41
2022-08-11T19:02:48.405Z,100099.03
2022-08-11T19:06:35.531Z,100108.81
2022-08-11T19:08:39.905Z,100109.72
2022-08-11T19:11:26.528Z,100119.38
2022-08-11T19:14:11.967Z,100122.69
2022-08-11T19:16:57.179Z,100122.66
2022-08-11T19:19:47.160Z,100132.97
2022-08-11T19:22:32.752Z,100132.72
2022-08-11T19:25:22.136Z,100123.00
2022-08-11T19:28:11.909Z,100145.53
2022-08-11T19:30:57.066Z,100133.56
2022-08-11T19:34:02.637Z,100147.78
2022-08-11T19:36:47.701Z,100142.03
2022-08-11T19:39:33.219Z,100151.75
2022-08-11T19:42:18.747Z,100152.34
2022-08-11T19:45:05.641Z,100145.13
2022-08-11T19:48:03.164Z,100144.75
2022-08-11T19:50:56.153Z,100149.75
2022-08-11T19:53:41.858Z,100132.72
2022-08-11T19:56:27.347Z,100141.81
2022-08-11T19:59:12.782Z,100150.03
2022-08-11T20:02:12.473Z,100128.19
2022-08-11T20:04:59.411Z,100151.19
2022-08-11T20:07:45.139Z,100151.81
2022-08-11T20:10:30.678Z,100149.94
2022-08-11T20:13:21.247Z,100153.09
2022-08-11T20:16:07.188Z,100150.16
2022-08-11T20:18:53.890Z,100145.47
2022-08-11T20:21:39.486Z,100154.00
2022-08-11T20:24:25.497Z,100154.56
2022-08-11T20:27:24.317Z,100150.72
2022-08-11T20:30:10.254Z,100151.56
2022-08-11T20:32:55.952Z,100134.28
2022-08-11T20:35:42.848Z,100158.16
2022-08-11T20:38:28.202Z,100158.75
2022-08-11T20:41:13.598Z,100157.47
2022-08-11T20:44:05.745Z,100160.59
2022-08-11T20:46:54.816Z,100155.91
2022-08-11T20:49:48.732Z,100151.19
2022-08-11T20:52:44.418Z,100164.22
2022-08-11T20:55:51.170Z,100165.50
2022-08-11T21:01:44.752Z,100169.28
2022-08-11T21:04:32.466Z,100165.53
2022-08-11T21:07:28.749Z,100164.31
2022-08-11T21:10:23.233Z,100166.69
2022-08-11T21:13:24.053Z,100165.41
2022-08-11T21:16:25.691Z,100165.59
2022-08-11T21:19:14.305Z,100107.63
2022-08-11T21:22:00.252Z,100173.53
2022-08-11T21:24:47.018Z,100172.88
2022-08-11T21:27:35.747Z,100171.28
2022-08-11T21:30:21.087Z,100163.00
2022-08-11T21:33:06.297Z,100138.56
2022-08-11T21:35:51.649Z,100120.41
2022-08-11T21:38:36.945Z,100168.16
2022-08-11T21:41:22.491Z,100168.53
2022-08-11T21:44:09.325Z,100169.72
2022-08-11T21:46:54.781Z,100159.38
2022-08-11T21:49:39.994Z,100173.75
2022-08-11T21:52:25.427Z,100164.19
2022-08-11T21:55:10.630Z,100168.03
2022-08-11T21:57:56.018Z,100170.94
2022-08-11T22:00:42.821Z,100163.06
2022-08-11T22:03:28.164Z,100164.25
2022-08-11T22:06:15.937Z,100175.28
2022-08-11T22:09:01.418Z,100166.78
2022-08-11T22:11:46.762Z,100136.16
2022-08-11T22:14:32.174Z,100164.50
2022-08-11T22:17:19.047Z,100166.59
2022-08-11T22:20:04.372Z,100164.22
2022-08-11T22:22:52.185Z,100167.03
2022-08-11T22:25:39.224Z,100167.16
2022-08-11T22:28:36.230Z,100161.19
2022-08-11T22:31:21.697Z,100165.00
2022-08-11T22:34:08.416Z,100167.00
2022-08-11T22:36:53.615Z,100170.66
2022-08-11T22:39:39.146Z,100168.19
2022-08-11T22:42:33.981Z,100151.63
2022-08-11T22:45:19.379Z,100158.72
2022-08-11T22:48:04.835Z,100160.53
2022-08-11T22:50:51.658Z,100148.88
2022-08-11T22:53:57.892Z,100157.16
2022-08-11T22:56:42.828Z,100157.16
2022-08-11T22:59:28.277Z,100155.44
2022-08-11T23:02:13.867Z,100158.25
2022-08-11T23:04:59.377Z,100160.06
2022-08-11T23:07:51.389Z,100116.34
2022-08-11T23:10:37.911Z,100163.63
2022-08-11T23:13:23.288Z,100133.91
2022-08-11T23:16:08.649Z,100047.50
2022-08-11T23:18:53.852Z,100095.13
2022-08-11T23:21:39.767Z,100009.25
2022-08-11T23:24:27.353Z,100117.66
2022-08-11T23:27:12.995Z,100166.50
2022-08-11T23:29:58.954Z,100102.66
2022-08-11T23:32:45.277Z,100104.94
2022-08-11T23:35:38.789Z,100110.78
2022-08-11T23:38:25.178Z,100157.69
2022-08-11T23:41:11.795Z,100174.88
2022-08-11T23:43:57.414Z,100038.06
2022-08-11T23:46:42.680Z,100010.09
2022-08-11T23:49:27.840Z,99968.00
2022-08-11T23:52:13.116Z,100111.59
2022-08-11T23:54:58.265Z,100145.59
2022-08-11T23:57:48.860Z,100124.16
